Time;durP1;ratioP1;P1;durP2;ratioP2;P2;SDS_P1;SDS_P2;PMS_P1;PMS_P2;Temp;Humidity;BMP_temperature;BMP_pressure;BME280_temperature;BME280_humidity;BME280_pressure;Samples;Min_cycle;Max_cycle;Signal;HPM_P1;HPM_P2
2023/12/09 00:01:46;;;;;;;11.83;9.80;;;3.50;99.90;;;-141.84;100.00;100861.66;5015157;28;20264;-67
2023/12/09 00:04:14;;;;;;;13.53;10.80;;;3.50;99.90;;;-141.84;100.00;102720.59;5018926;28;20205;-67
2023/12/09 00:06:47;;;;;;;12.13;9.60;;;3.50;99.90;;;-141.84;100.00;102189.38;5030131;28;20222;-66
2023/12/09 00:09:18;;;;;;;10.10;8.70;;;3.50;99.90;;;-141.84;100.00;103783.25;5022489;28;20249;-66
2023/12/09 00:11:46;;;;;;;11.20;9.10;;;3.40;99.90;;;-141.84;100.00;105909.34;5011095;28;20234;-67
2023/12/09 00:14:14;;;;;;;11.97;9.83;;;3.50;99.90;;;-141.84;100.00;102189.38;5013049;28;20234;-67
2023/12/09 00:16:45;;;;;;;10.20;9.13;;;3.50;99.90;;;-141.84;100.00;104048.94;5010880;28;20236;-66
2023/12/09 00:19:13;;;;;;;12.70;10.00;;;3.50;99.90;;;-141.84;100.00;104846.16;5014686;28;20227;-67
2023/12/09 00:21:42;;;;;;;10.73;9.23;;;3.50;99.90;;;-141.84;100.00;102189.38;5016653;28;20256;-66
2023/12/09 00:24:11;;;;;;;10.47;9.27;;;;;;;-141.84;100.00;93964.47;5011559;28;20316;-66
2023/12/09 00:26:39;;;;;;;9.90;8.90;;;3.60;99.90;;;-141.84;100.00;95555.09;5016087;28;20229;-68
2023/12/09 00:29:08;;;;;;;10.73;8.87;;;3.70;99.90;;;-141.84;100.00;100065.22;5019071;28;20656;-67
2023/12/09 00:31:36;;;;;;;11.03;9.23;;;3.70;99.90;;;-141.84;100.00;103517.56;5017963;28;20244;-67
2023/12/09 00:34:06;;;;;;;10.10;8.57;;;3.60;99.90;;;-141.84;100.00;105377.72;5021349;28;20249;-66
2023/12/09 00:36:34;;;;;;;10.53;8.93;;;3.60;99.90;;;-141.84;100.00;106175.19;5021228;28;20223;-67
2023/12/09 00:39:03;;;;;;;11.33;9.40;;;3.50;99.90;;;-141.84;100.00;107770.63;5021956;28;20782;-63
2023/12/09 00:41:31;;;;;;;11.50;8.50;;;3.60;99.90;;;-141.84;100.00;105111.94;5023170;28;20229;-63
2023/12/09 00:43:59;;;;;;;10.73;9.00;;;3.60;99.90;;;-141.84;100.00;105643.53;5024012;28;20257;-64
2023/12/09 00:46:27;;;;;;;11.57;8.93;;;3.60;99.90;;;-141.84;100.00;106706.94;5021872;28;20731;-63
2023/12/09 00:48:55;;;;;;;11.00;9.00;;;3.60;99.90;;;-141.84;100.00;107770.63;5023264;28;20198;-63
2023/12/09 00:51:25;;;;;;;11.40;8.63;;;3.60;99.90;;;-141.84;100.00;108568.56;5023048;28;20228;-63
2023/12/09 00:53:53;;;;;;;11.93;9.50;;;3.60;99.90;;;-141.84;100.00;109366.66;5022140;28;20279;-63
2023/12/09 00:56:22;;;;;;;11.00;9.20;;;3.60;99.90;;;-141.84;100.00;108036.56;5023238;28;20228;-63
2023/12/09 00:59:02;;;;;;;10.07;8.50;;;3.60;99.90;;;-141.84;100.00;106175.19;5023130;28;20317;-64
2023/12/09 01:01:33;;;;;;;10.27;8.50;;;3.60;99.90;;;-141.84;100.00;105909.34;5021779;28;20230;-64
2023/12/09 01:04:03;;;;;;;11.37;8.93;;;3.60;99.90;;;-141.84;100.00;107504.66;5021782;28;20247;-64
2023/12/09 01:06:33;;;;;;;10.70;8.93;;;3.60;99.90;;;-141.84;100.00;109632.72;5022460;28;20210;-64
2023/12/09 01:09:01;;;;;;;12.33;8.70;;;3.60;99.90;;;-141.84;100.00;111229.50;5017771;28;20637;-64
2023/12/09 01:11:30;;;;;;;9.63;8.47;;;3.60;99.90;;;-141.84;100.00;112294.34;5022781;28;20228;-64
2023/12/09 01:13:58;;;;;;;9.93;8.57;;;3.50;99.90;;;-141.84;100.00;111229.50;5022332;28;20272;-64
2023/12/09 01:16:26;;;;;;;10.60;8.33;;;3.60;99.90;;;-141.84;100.00;108834.56;5020678;28;20661;-63
2023/12/09 01:18:54;;;;;;;10.37;8.53;;;3.70;99.90;;;-141.84;100.00;108036.56;5021879;28;20252;-64
2023/12/09 01:21:23;;;;;;;10.17;8.00;;;3.60;99.90;;;-141.84;100.00;103517.56;5022487;28;20229;-64
2023/12/09 01:23:52;;;;;;;10.87;8.90;;;3.60;99.90;;;-141.84;100.00;102720.59;5015845;28;20254;-63
2023/12/09 01:26:21;;;;;;;10.53;8.83;;;3.70;99.90;;;-141.84;100.00;103251.88;5021069;28;20225;-63
2023/12/09 01:28:49;;;;;;;9.83;8.50;;;3.70;99.90;;;-141.84;100.00;107770.63;5022010;28;20688;-65
2023/12/09 01:31:17;;;;;;;9.70;8.00;;;3.60;99.90;;;-141.84;100.00;107238.72;5022224;28;20281;-64
2023/12/09 01:33:45;;;;;;;10.47;8.70;;;3.60;99.90;;;-141.84;100.00;110164.91;5020052;28;20235;-64
2023/12/09 01:36:14;;;;;;;10.30;8.20;;;3.50;99.90;;;-141.84;100.00;112294.34;5020289;28;20255;-63
2023/12/09 01:38:42;;;;;;;10.40;8.40;;;3.50;99.90;;;-141.84;100.00;113625.81;5022093;28;20586;-63
2023/12/09 01:41:11;;;;;;;10.40;8.20;;;3.50;99.90;;;-141.84;100.00;114691.31;5022301;28;20233;-64
2023/12/09 01:43:40;;;;;;;11.33;8.67;;;3.50;99.90;;;-141.84;100.00;114691.31;5021664;28;20289;-64
2023/12/09 01:46:11;;;;;;;10.73;8.57;;;3.50;99.90;;;-141.84;100.00;114691.31;5020076;28;20206;-64
2023/12/09 01:48:40;;;;;;;10.37;8.73;;;3.50;99.90;;;-141.84;100.00;114691.31;5019971;28;20252;-64
2023/12/09 01:51:09;;;;;;;10.27;8.77;;;3.50;99.90;;;-141.84;100.00;116023.56;5021923;28;20307;-63
2023/12/09 01:53:38;;;;;;;10.70;9.00;;;3.50;99.90;;;-141.84;100.00;116823.13;5021084;28;20585;-64
2023/12/09 01:56:11;;;;;;;9.40;8.37;;;3.50;99.90;;;-141.84;100.00;116556.59;5019992;28;20807;-64
2023/12/09 01:58:40;;;;;;;9.43;8.00;;;3.50;99.90;;;-141.84;100.00;116023.56;5021174;28;20203;-63
2023/12/09 02:01:10;;;;;;;10.43;8.27;;;3.50;99.90;;;-141.84;100.00;116556.59;5020105;28;20285;-64
2023/12/09 02:03:39;;;;;;;11.10;9.17;;;3.50;99.90;;;-141.84;100.00;115757.06;5020976;28;20637;-64
2023/12/09 02:06:07;;;;;;;11.00;8.37;;;3.50;99.90;;;-141.84;100.00;116290.06;5021641;28;20300;-64
2023/12/09 02:08:36;;;;;;;11.27;9.30;;;3.50;99.90;;;-141.84;100.00;117089.69;5014394;28;20694;-64
2023/12/09 02:11:18;;;;;;;12.33;9.10;;;3.50;99.90;;;-141.84;100.00;117356.25;5020279;28;20232;-64
2023/12/09 02:14:04;;;;;;;11.87;8.83;;;3.50;99.90;;;-141.84;100.00;117622.84;5020218;28;20701;-64
2023/12/09 02:16:43;;;;;;;11.47;9.47;;;3.20;99.90;;;-141.84;100.00;117622.84;5017330;28;20784;-65
2023/12/09 02:19:14;;;;;;;10.40;8.33;;;3.50;99.90;;;-141.84;100.00;117889.44;5021804;28;20205;-65
2023/12/09 02:21:58;;;;;;;11.00;8.73;;;3.50;99.90;;;-141.84;100.00;117889.44;5017487;28;20222;-64
2023/12/09 02:24:28;;;;;;;11.43;9.20;;;3.50;99.90;;;-141.84;100.00;118156.06;5018059;28;20290;-63
2023/12/09 02:27:05;;;;;;;12.63;9.17;;;3.50;99.90;;;-141.84;100.00;116556.59;5021526;28;20229;-63
2023/12/09 02:29:41;;;;;;;11.03;8.47;;;3.50;99.90;;;-141.84;100.00;117089.69;5021108;28;20224;-63
2023/12/09 02:32:12;;;;;;;10.43;8.63;;;3.50;99.90;;;-141.84;100.00;117356.25;5021166;28;20233;-63
2023/12/09 02:34:43;;;;;;;11.67;8.67;;;3.60;99.90;;;-141.84;100.00;117622.84;5016582;28;20205;-64
2023/12/09 02:37:14;;;;;;;11.73;8.70;;;3.50;99.90;;;-141.84;100.00;117089.69;5017320;28;20278;-63
2023/12/09 02:39:43;;;;;;;11.63;8.63;;;3.50;99.90;;;-141.84;100.00;117356.25;5024372;28;20327;-64
2023/12/09 02:42:13;;;;;;;10.53;8.30;;;3.50;99.90;;;-141.84;100.00;113892.16;5020109;28;20249;-65
2023/12/09 02:44:43;;;;;;;9.70;8.07;;;3.60;99.90;;;-141.84;100.00;114158.53;5017519;28;20232;-63
2023/12/09 02:47:15;;;;;;;11.03;8.40;;;3.60;99.90;;;-141.84;100.00;111761.88;5016758;28;20664;-64
2023/12/09 02:49:44;;;;;;;9.97;8.23;;;3.70;99.90;;;-141.84;100.00;112826.88;5018239;28;20504;-63
2023/12/09 02:52:13;;;;;;;11.17;9.03;;;3.70;99.90;;;-141.84;100.00;113892.16;5011204;28;20255;-65
2023/12/09 02:54:41;;;;;;;9.40;7.57;;;3.60;99.90;;;-141.84;100.00;115490.59;5020725;28;20588;-64
2023/12/09 02:57:10;;;;;;;11.63;8.50;;;3.60;99.90;;;-141.84;100.00;116290.06;5028107;28;20233;-64
2023/12/09 02:59:39;;;;;;;11.43;8.80;;;3.60;99.90;;;-141.84;100.00;115490.59;5013614;28;20238;-64
2023/12/09 03:02:07;;;;;;;9.90;8.23;;;3.70;99.90;;;-141.84;100.00;112560.63;4998308;28;20386;-64
2023/12/09 03:04:35;;;;;;;10.17;7.90;;;3.70;99.90;;;-141.84;100.00;111761.88;4990715;28;20200;-64
2023/12/09 03:07:04;;;;;;;10.47;8.50;;;3.70;99.90;;;-141.84;100.00;112028.13;4991479;28;20210;-64
2023/12/09 03:09:32;;;;;;;11.60;8.60;;;3.70;99.90;;;-141.84;100.00;112826.88;5010077;28;20231;-65
2023/12/09 03:12:00;;;;;;;11.07;8.10;;;3.70;99.90;;;-141.84;100.00;112028.13;5010239;28;20323;-64
2023/12/09 03:14:30;;;;;;;9.90;8.13;;;3.70;99.90;;;-141.84;100.00;113093.19;5010003;28;20317;-64
2023/12/09 03:16:58;;;;;;;10.07;8.30;;;3.70;99.90;;;-141.84;100.00;113625.81;5010137;28;20314;-64
2023/12/09 03:19:26;;;;;;;9.33;7.43;;;3.80;99.90;;;-141.84;100.00;112826.88;5010278;28;20229;-65
2023/12/09 03:21:54;;;;;;;10.90;8.03;;;3.80;99.90;;;-141.84;100.00;113892.16;5010823;28;20201;-67
2023/12/09 03:24:22;;;;;;;10.07;8.23;;;3.70;99.90;;;-141.84;100.00;114158.53;5009899;28;20714;-64
2023/12/09 03:26:51;;;;;;;10.87;7.90;;;3.70;99.90;;;-141.84;100.00;113892.16;5010212;28;20234;-64
2023/12/09 03:29:20;;;;;;;9.87;8.17;;;3.80;99.90;;;-141.84;100.00;115757.06;5009945;28;20232;-64
2023/12/09 03:31:50;;;;;;;10.40;8.30;;;3.70;99.90;;;-141.84;100.00;116290.06;5010171;28;20234;-64
2023/12/09 03:34:18;;;;;;;10.57;8.03;;;3.70;99.90;;;-141.84;100.00;116556.59;5010549;28;20290;-63
2023/12/09 03:36:46;;;;;;;10.80;8.50;;;3.70;99.90;;;-141.84;100.00;116290.06;5009913;28;20244;-63
2023/12/09 03:39:15;;;;;;;10.30;7.97;;;3.80;99.90;;;-141.84;100.00;111761.88;5009043;28;20229;-64
2023/12/09 03:41:43;;;;;;;12.20;8.23;;;3.80;99.90;;;-141.84;100.00;112028.13;5009405;28;20333;-63
2023/12/09 03:44:12;;;;;;;10.63;8.43;;;3.80;99.90;;;-141.84;100.00;114158.53;5009720;28;20225;-64
2023/12/09 03:46:40;;;;;;;12.07;7.87;;;3.80;99.90;;;-141.84;100.00;115490.59;5020144;28;20289;-64
2023/12/09 03:49:09;;;;;;;12.00;8.17;;;3.80;99.90;;;-141.84;100.00;114691.31;5029735;28;20616;-65
2023/12/09 03:51:38;;;;;;;11.23;8.00;;;3.80;99.90;;;-141.84;100.00;114424.91;5029473;28;20227;-65
2023/12/09 03:54:06;;;;;;;10.73;8.70;;;3.70;99.90;;;-141.84;100.00;114424.91;5029432;28;20222;-64
2023/12/09 03:56:34;;;;;;;10.53;8.73;;;3.80;99.90;;;-141.84;100.00;110431.03;5029654;28;20233;-64
2023/12/09 03:59:02;;;;;;;14.60;8.50;;;3.90;99.90;;;-141.84;100.00;112028.13;4997710;28;20738;-64
2023/12/09 04:01:30;;;;;;;9.30;8.27;;;3.80;99.90;;;-141.84;100.00;112826.88;5009772;28;20229;-63
2023/12/09 04:03:58;;;;;;;11.07;9.27;;;3.90;99.90;;;-141.84;100.00;112560.63;5010386;28;20210;-65
2023/12/09 04:06:28;;;;;;;11.73;8.90;;;4.00;99.90;;;-141.84;100.00;112560.63;5009432;28;20233;-65
2023/12/09 04:08:57;;;;;;;10.77;8.10;;;3.90;99.90;;;-141.84;100.00;112294.34;5009409;28;20734;-64
2023/12/09 04:11:25;;;;;;;11.10;8.30;;;3.90;99.90;;;-141.84;100.00;110697.16;5009625;28;20308;-64
2023/12/09 04:13:53;;;;;;;10.30;7.93;;;4.00;99.90;;;-141.84;100.00;108302.56;5013004;28;20259;-64
2023/12/09 04:16:21;;;;;;;10.27;8.17;;;3.90;99.90;;;-141.84;100.00;109898.81;5012508;28;20285;-63
2023/12/09 04:18:50;;;;;;;10.97;7.77;;;3.90;99.90;;;-141.84;100.00;111229.50;5012959;28;20666;-64
2023/12/09 04:21:18;;;;;;;9.57;7.50;;;3.90;99.90;;;-141.84;100.00;112560.63;5012975;28;20236;-64
2023/12/09 04:23:48;;;;;;;11.53;8.37;;;3.90;99.90;;;-141.84;100.00;113892.16;5012912;28;20246;-64
2023/12/09 04:26:16;;;;;;;10.97;8.10;;;3.90;99.90;;;-141.84;100.00;114957.72;5012982;28;20270;-64
2023/12/09 04:28:46;;;;;;;11.07;8.40;;;3.80;99.90;;;-141.84;100.00;114691.31;5010977;28;21386;-64
2023/12/09 04:31:14;;;;;;;11.53;8.73;;;3.90;99.90;;;-141.84;100.00;107770.63;5011723;28;20298;-64
2023/12/09 04:33:44;;;;;;;10.67;8.30;;;4.00;99.90;;;-141.84;100.00;110164.91;5012015;28;20412;-64
2023/12/09 04:36:12;;;;;;;12.93;8.50;;;3.90;99.90;;;-141.84;100.00;112294.34;5009968;28;20234;-64
2023/12/09 04:38:41;;;;;;;11.13;8.80;;;3.90;99.90;;;-141.84;100.00;113359.50;5024024;28;20229;-64
2023/12/09 04:41:10;;;;;;;11.87;8.57;;;3.90;99.90;;;-141.84;100.00;113625.81;5020034;28;20256;-64
2023/12/09 04:43:39;;;;;;;11.23;9.00;;;3.90;99.90;;;-141.84;100.00;115490.59;5032559;28;20581;-65
2023/12/09 04:46:08;;;;;;;10.83;8.83;;;3.90;99.90;;;-141.84;100.00;112028.13;5024864;28;20604;-65
2023/12/09 04:48:36;;;;;;;11.57;9.00;;;4.00;99.90;;;-141.84;100.00;108036.56;5015295;28;20253;-64
2023/12/09 04:51:05;;;;;;;12.73;8.30;;;4.10;99.90;;;-141.84;100.00;111229.50;5020357;28;20279;-64
2023/12/09 04:53:33;;;;;;;11.70;8.90;;;4.00;99.90;;;-141.84;100.00;113359.50;5023380;28;20619;-64
2023/12/09 04:56:04;;;;;;;12.73;9.33;;;4.00;99.90;;;-141.84;100.00;112560.63;5021260;28;20233;-63
2023/12/09 04:58:33;;;;;;;10.73;8.10;;;4.10;99.90;;;-141.84;100.00;112294.34;5017785;28;20286;-65
2023/12/09 05:01:02;;;;;;;10.93;8.27;;;4.10;99.90;;;-141.84;100.00;113093.19;5023569;28;20718;-65
2023/12/09 05:03:31;;;;;;;9.80;7.93;;;4.10;99.90;;;-141.84;100.00;112294.34;4992866;28;20242;-63
2023/12/09 05:06:00;;;;;;;11.33;8.37;;;4.10;99.90;;;-141.84;100.00;113625.81;4992831;28;20231;-66
2023/12/09 05:08:29;;;;;;;13.13;8.70;;;4.00;99.90;;;-141.84;100.00;114158.53;5015000;28;20225;-64
2023/12/09 05:10:57;;;;;;;12.20;8.53;;;4.10;99.90;;;-141.84;100.00;113359.50;5025113;28;20639;-64
2023/12/09 05:13:25;;;;;;;10.43;8.50;;;4.10;99.90;;;-141.84;100.00;113359.50;5017816;28;20282;-64
2023/12/09 05:15:55;;;;;;;10.07;7.60;;;4.10;99.90;;;-141.84;100.00;114691.31;5012830;28;20253;-64
2023/12/09 05:18:23;;;;;;;11.67;8.30;;;4.10;99.90;;;-141.84;100.00;115757.06;5012062;28;20280;-64
2023/12/09 05:20:51;;;;;;;10.97;7.63;;;4.00;99.90;;;-141.84;100.00;114691.31;5018918;28;20438;-64
2023/12/09 05:23:19;;;;;;;9.57;7.47;;;4.00;99.90;;;-141.84;100.00;111229.50;5027007;28;20260;-64
2023/12/09 05:25:49;;;;;;;8.23;6.93;;;4.10;99.90;;;-141.84;100.00;109632.72;5012528;28;20591;-63
2023/12/09 05:28:17;;;;;;;9.33;6.90;;;4.10;99.90;;;-141.84;100.00;109898.81;5023182;28;20671;-65
2023/12/09 05:30:45;;;;;;;9.33;7.50;;;4.20;99.90;;;-141.84;100.00;109100.59;5018326;28;20304;-63
2023/12/09 05:33:15;;;;;;;9.17;7.20;;;4.20;99.90;;;-141.84;100.00;106175.19;5028590;28;20251;-63
2023/12/09 05:35:44;;;;;;;10.83;7.20;;;4.20;99.90;;;-141.84;100.00;106441.06;5018677;28;20233;-63
2023/12/09 05:38:12;;;;;;;9.77;7.00;;;4.20;99.90;;;-141.84;100.00;106441.06;5011737;28;20313;-64
2023/12/09 05:40:40;;;;;;;8.70;6.90;;;4.20;99.90;;;-141.84;100.00;110164.91;5019447;28;20279;-64
2023/12/09 05:43:09;;;;;;;9.37;6.87;;;4.10;99.90;;;-141.84;100.00;110431.03;5023852;28;20293;-64
2023/12/09 05:45:37;;;;;;;8.77;6.70;;;4.10;99.90;;;-141.84;100.00;111761.88;5029296;28;20219;-64
2023/12/09 05:48:06;;;;;;;10.47;6.97;;;4.10;99.90;;;-141.84;100.00;112028.13;5031253;28;20434;-64
2023/12/09 05:50:35;;;;;;;9.00;7.47;;;4.00;99.90;;;-141.84;100.00;112826.88;5026971;28;20229;-64
2023/12/09 05:53:04;;;;;;;9.47;6.67;;;4.10;99.90;;;-141.84;100.00;109632.72;5023933;28;20233;-64
2023/12/09 05:55:32;;;;;;;9.77;7.00;;;4.10;99.90;;;-141.84;100.00;110697.16;5031516;28;20616;-63
2023/12/09 05:58:00;;;;;;;10.03;6.57;;;4.10;99.90;;;-141.84;100.00;109632.72;5031660;28;20238;-64
2023/12/09 06:00:28;;;;;;;11.07;7.10;;;4.10;99.90;;;-141.84;100.00;109898.81;5016516;28;20344;-64
2023/12/09 06:02:56;;;;;;;9.17;6.60;;;4.20;99.90;;;-141.84;100.00;108834.56;5028581;28;20310;-63
2023/12/09 06:05:25;;;;;;;8.53;6.70;;;4.20;99.90;;;-141.84;100.00;111229.50;5013668;28;20230;-64
2023/12/09 06:07:55;;;;;;;9.07;6.90;;;4.20;99.90;;;-141.84;100.00;110164.91;5008811;28;20234;-63
2023/12/09 06:10:23;;;;;;;8.50;6.30;;;4.20;99.90;;;-141.84;100.00;107504.66;5011562;28;20213;-64
2023/12/09 06:12:51;;;;;;;7.73;6.50;;;4.20;99.90;;;-141.84;100.00;107504.66;5011331;28;20317;-65
2023/12/09 06:15:19;;;;;;;7.37;6.63;;;4.30;99.90;;;-141.84;100.00;106706.94;5011141;28;20352;-64
2023/12/09 06:17:48;;;;;;;9.20;6.53;;;4.30;99.90;;;-141.84;100.00;107770.63;5010921;28;20605;-63
2023/12/09 06:20:16;;;;;;;8.30;6.30;;;4.30;99.90;;;-141.84;100.00;108302.56;5011058;28;20226;-64
2023/12/09 06:22:44;;;;;;;9.07;6.13;;;4.20;99.90;;;-141.84;100.00;108568.56;5011407;28;20216;-63
2023/12/09 06:25:14;;;;;;;10.33;6.40;;;4.30;99.90;;;-141.84;100.00;107770.63;5012228;28;20289;-64
2023/12/09 06:27:42;;;;;;;8.57;6.70;;;4.30;99.90;;;-141.84;100.00;110431.03;5011099;28;20261;-64
2023/12/09 06:30:12;;;;;;;9.80;6.07;;;4.30;99.90;;;-141.84;100.00;112028.13;5011232;28;20233;-64
2023/12/09 06:32:41;;;;;;;8.00;6.43;;;4.20;99.90;;;-141.84;100.00;113892.16;5011155;28;20571;-64
2023/12/09 06:35:10;;;;;;;7.83;6.30;;;4.20;99.90;;;-141.84;100.00;114158.53;5010306;28;20706;-64
2023/12/09 06:37:39;;;;;;;9.30;6.40;;;4.10;99.90;;;-141.84;100.00;114691.31;5011197;28;20219;-63
2023/12/09 06:40:09;;;;;;;9.80;5.60;;;4.10;99.90;;;-141.84;100.00;115757.06;4992308;28;20280;-63
2023/12/09 06:42:39;;;;;;;7.77;5.97;;;4.10;99.90;;;-141.84;100.00;113625.81;4991941;28;20764;-63
2023/12/09 06:45:08;;;;;;;8.90;5.90;;;4.00;99.90;;;-141.84;100.00;114957.72;4991729;28;20730;-64
2023/12/09 06:47:36;;;;;;;8.70;5.87;;;4.00;99.90;;;-141.84;100.00;116023.56;4993900;28;20296;-63
2023/12/09 06:50:07;;;;;;;8.30;5.53;;;4.00;99.90;;;-141.84;100.00;117356.25;4991359;28;20230;-63
2023/12/09 06:52:35;;;;;;;6.60;5.40;;;4.00;99.90;;;-141.84;100.00;117622.84;4991052;28;20207;-64
2023/12/09 06:55:04;;;;;;;6.97;5.43;;;4.00;99.90;;;-141.84;100.00;117622.84;4991484;28;20230;-64
2023/12/09 06:57:32;;;;;;;7.30;5.33;;;4.00;99.90;;;-141.84;100.00;118422.72;4990559;28;20238;-64
2023/12/09 07:00:05;;;;;;;8.13;5.70;;;4.10;99.90;;;-141.84;100.00;118956.03;5003255;28;20237;-64
2023/12/09 07:02:33;;;;;;;7.00;5.77;;;4.10;99.90;;;-141.84;100.00;118956.03;5010550;28;20233;-65
2023/12/09 07:05:20;;;;;;;8.43;5.63;;;4.10;99.90;;;-141.84;100.00;119224.81;5010309;28;20609;-64
2023/12/09 07:07:50;;;;;;;8.07;5.23;;;4.10;99.90;;;-141.84;100.00;119224.81;5010146;28;20226;-64
2023/12/09 07:10:19;;;;;;;8.53;6.00;;;4.10;99.90;;;-141.84;100.00;119224.81;5010421;28;20290;-63
2023/12/09 07:12:47;;;;;;;8.40;5.20;;;4.10;99.90;;;-141.84;100.00;119222.75;5009737;28;20714;-64
2023/12/09 07:15:17;;;;;;;7.80;5.50;;;4.20;99.90;;;-141.84;100.00;118956.03;5009965;28;20954;-64
2023/12/09 07:17:45;;;;;;;7.47;5.20;;;4.20;99.90;;;-141.84;100.00;118956.03;5009928;28;20236;-64
2023/12/09 07:20:14;;;;;;;8.93;5.17;;;4.20;99.90;;;-141.84;100.00;118156.06;5010177;28;20276;-65
2023/12/09 07:22:42;;;;;;;6.77;4.90;;;4.30;99.90;;;-141.84;100.00;111229.50;5010159;28;20212;-64
2023/12/09 07:25:10;;;;;;;8.10;5.33;;;4.40;99.90;;;-141.84;100.00;109632.72;5008905;28;20202;-64
2023/12/09 07:27:38;;;;;;;6.57;4.83;;;4.50;99.90;;;-141.84;100.00;110164.91;5009581;28;20369;-64
2023/12/09 07:30:08;;;;;;;7.67;5.00;;;4.40;99.90;;;-141.84;100.00;111495.69;5009627;28;20222;-64
2023/12/09 07:32:38;;;;;;;6.87;5.13;;;4.40;99.90;;;-141.84;100.00;108834.56;5009643;28;20231;-63
2023/12/09 07:35:07;;;;;;;6.07;5.27;;;4.50;99.90;;;-141.84;100.00;107770.63;5009662;28;20627;-64
2023/12/09 07:37:35;;;;;;;7.33;4.67;;;4.50;99.90;;;-141.84;100.00;105377.72;5010130;28;20214;-64
2023/12/09 07:40:06;;;;;;;8.07;5.67;;;4.60;99.90;;;-141.84;100.00;103251.88;5009957;28;20261;-64
2023/12/09 07:42:34;;;;;;;6.67;4.80;;;4.70;99.90;;;-141.84;100.00;99003.56;5009561;28;20273;-64
2023/12/09 07:45:02;;;;;;;7.47;4.53;;;4.70;99.90;;;-141.84;100.00;95289.94;5009619;28;20234;-64
2023/12/09 07:47:30;;;;;;;5.67;4.27;;;4.80;99.90;;;-141.84;100.00;96615.84;5029553;28;20233;-64
2023/12/09 07:50:00;;;;;;;8.70;6.10;;;4.80;99.90;;;-141.84;100.00;96615.84;5033236;28;20295;-63
2023/12/09 07:52:28;;;;;;;7.57;6.27;;;4.80;99.90;;;-141.84;100.00;99268.97;5033465;28;20658;-64
2023/12/09 07:54:57;;;;;;;6.30;4.93;;;4.70;99.90;;;-141.84;100.00;97411.59;5034016;28;20206;-64
2023/12/09 07:57:25;;;;;;;7.07;4.50;;;4.80;99.90;;;-141.84;100.00;93434.41;5033164;28;20674;-63
2023/12/09 07:59:53;;;;;;;10.40;5.10;;;4.90;99.90;;;-141.84;100.00;92374.47;5020617;28;20238;-63
2023/12/09 08:02:21;;;;;;;8.07;5.20;;;4.90;99.90;;;-141.84;100.00;94759.69;5012894;28;21004;-64
2023/12/09 08:04:50;;;;;;;5.40;4.73;;;4.90;99.90;;;-141.84;100.00;100861.66;5013647;28;20246;-65
2023/12/09 08:07:19;;;;;;;5.50;4.10;;;4.80;99.90;;;-141.84;100.00;100596.16;5013831;28;20205;-65
2023/12/09 08:09:47;;;;;;;5.87;4.73;;;4.90;99.90;;;-141.84;100.00;91844.63;5013257;28;20227;-64
2023/12/09 08:12:14;;;;;;;5.53;4.00;;;5.00;99.90;;;-141.84;100.00;89725.88;5013299;28;20875;-64
2023/12/09 08:14:43;;;;;;;5.67;4.40;;;5.10;99.90;;;-141.84;100.00;89196.38;5013101;28;20237;-65
2023/12/09 08:17:11;;;;;;;5.63;4.63;;;5.10;99.90;;;-141.84;100.00;88931.63;5013460;28;20311;-64
2023/12/09 08:19:39;;;;;;;5.30;4.37;;;5.20;99.90;;;-141.84;100.00;89461.13;5012870;28;20298;-63
2023/12/09 08:22:08;;;;;;;6.83;4.57;;;5.20;99.90;;;-141.84;100.00;89461.13;5013490;28;20276;-64
2023/12/09 08:24:37;;;;;;;6.10;4.50;;;5.20;99.90;;;-141.84;100.00;89725.88;5012714;28;20714;-62
2023/12/09 08:27:06;;;;;;;7.17;4.80;;;5.20;99.90;;;-141.84;100.00;79677.06;5013145;28;20288;-64
2023/12/09 08:29:35;;;;;;;5.37;4.23;;;5.20;99.90;;;-141.84;100.00;84169.50;5012811;28;20249;-64
2023/12/09 08:32:03;;;;;;;8.10;4.60;;;5.20;99.90;;;-141.84;100.00;84169.50;5012993;28;20226;-64
2023/12/09 08:34:32;;;;;;;6.70;4.80;;;5.20;99.90;;;-141.84;100.00;88931.63;5012849;28;20183;-64
2023/12/09 08:37:00;;;;;;;6.40;5.03;;;5.10;99.90;;;-141.84;100.00;91844.63;5013502;28;20209;-65
2023/12/09 08:39:28;;;;;;;6.57;5.07;;;5.10;99.90;;;-141.84;100.00;87079.03;5001939;28;20274;-63
2023/12/09 08:41:58;;;;;;;5.97;4.90;;;5.20;99.90;;;-141.84;100.00;81526.28;4993025;28;20242;-65
2023/12/09 08:44:26;;;;;;;6.90;4.30;;;5.30;99.90;;;-141.84;100.00;77828.72;4992892;28;20242;-64
2023/12/09 08:46:54;;;;;;;6.03;4.57;;;5.40;99.90;;;-141.84;98.39;69126.50;5017577;28;20313;-64
2023/12/09 08:49:22;;;;;;;7.67;5.10;;;5.40;99.90;;;-141.84;98.44;68863.09;5032911;28;20292;-65
2023/12/09 08:51:50;;;;;;;5.57;4.37;;;5.50;99.90;;;-141.84;98.44;68863.09;5012876;28;20214;-66
2023/12/09 08:54:19;;;;;;;6.13;4.43;;;5.50;99.90;;;-141.84;98.18;68072.97;5027974;28;20251;-64
2023/12/09 08:56:47;;;;;;;5.77;5.00;;;5.60;99.90;;;-141.84;98.64;69389.94;5032403;28;20374;-65
2023/12/09 08:59:16;;;;;;;6.10;4.70;;;5.50;99.90;;;-141.84;97.47;66493.19;5024570;28;20234;-64
2023/12/09 09:01:45;;;;;;;7.03;4.80;;;5.60;99.90;;;-141.84;98.39;68863.09;5012619;28;20227;-65
2023/12/09 09:04:13;;;;;;;5.43;4.93;;;5.50;99.90;;;-141.84;98.59;68863.09;5013083;28;20212;-64
2023/12/09 09:06:41;;;;;;;5.67;4.40;;;5.60;99.90;;;-141.84;97.26;64650.94;5012534;28;20237;-64
2023/12/09 09:09:11;;;;;;;6.37;4.87;;;5.60;99.90;;;-141.84;96.51;61494.72;5012327;28;20615;-64
2023/12/09 09:11:39;;;;;;;4.80;4.30;;;5.60;99.90;;;-141.84;97.43;64387.81;5012325;28;20316;-65
2023/12/09 09:14:08;;;;;;;4.87;4.37;;;5.70;99.90;;;-141.84;96.53;62020.59;5012180;28;20226;-64
2023/12/09 09:16:37;;;;;;;5.53;4.47;;;5.70;99.90;;;-141.84;95.71;57290.34;5011727;28;20296;-64
2023/12/09 09:19:06;;;;;;;5.43;4.40;;;5.80;99.90;;;-141.84;94.46;51516.59;5012581;28;20621;-64
2023/12/09 09:21:35;;;;;;;6.07;3.93;;;5.80;99.90;;;-141.84;94.24;48632.88;4992349;28;20232;-64
2023/12/09 09:24:03;;;;;;;4.70;4.00;;;5.90;99.90;;;-141.84;93.70;47584.78;5001675;28;20229;-64
2023/12/09 09:26:31;;;;;;;4.63;4.17;;;6.00;99.90;;;-141.84;92.77;41302.00;5012094;28;20237;-64
2023/12/09 09:28:59;;;;;;;5.37;4.10;;;6.10;99.90;;;-141.84;90.45;30282.31;5011913;28;20223;-64
2023/12/09 09:31:28;;;;;;;4.93;3.87;;;6.20;99.90;;;-141.84;90.69;31401.25;5012193;28;20203;-63
2023/12/09 09:33:57;;;;;;;3.77;3.33;;;6.30;99.90;;;-141.84;89.09;25254.19;5017166;28;20752;-64
2023/12/09 09:36:26;;;;;;;4.13;3.73;;;6.40;99.90;;;-141.84;88.72;24759.66;5020142;28;20218;-64
2023/12/09 09:38:54;;;;;;;4.47;3.70;;;6.50;99.90;;;-141.84;86.39;21049.72;5017700;28;20587;-65
2023/12/09 09:41:29;;;;;;;5.30;3.30;;;6.70;99.90;;;-141.84;84.39;19653.28;5020087;28;20219;-66
2023/12/09 09:44:04;;;;;;;3.37;2.97;;;6.80;99.90;;;-141.84;83.11;19372.84;5020301;28;20229;-64
2023/12/09 09:46:35;;;;;;;3.67;3.30;;;7.00;99.90;;;-141.84;81.54;19082.25;5006635;28;20293;-64
2023/12/09 09:49:05;;;;;;;4.17;3.60;;;7.10;99.90;;;-141.84;81.22;18984.72;5018475;28;20198;-64
2023/12/09 09:51:36;;;;;;;5.77;3.23;;;7.20;99.90;;;-141.84;82.63;19151.34;5020672;28;20218;-63
2023/12/09 09:54:14;;;;;;;3.37;3.07;;;7.20;99.90;;;-141.84;81.93;19072.09;5014838;28;20230;-65
2023/12/09 09:56:44;;;;;;;4.80;3.37;;;7.20;99.90;;;-141.84;81.98;19098.50;5019368;28;20218;-64
2023/12/09 09:59:13;;;;;;;3.50;3.20;;;7.20;99.90;;;-141.84;81.99;19126.97;5019052;28;20640;-64
2023/12/09 10:01:42;;;;;;;4.20;3.57;;;7.30;99.90;;;-141.84;82.33;19208.25;5021306;28;20229;-63
2023/12/09 10:04:12;;;;;;;3.67;3.03;;;7.20;99.90;;;-141.84;82.43;19196.06;5020792;28;20214;-63
2023/12/09 10:06:41;;;;;;;4.33;3.50;;;7.20;99.90;;;-141.84;84.56;19663.44;5018890;28;20230;-64
2023/12/09 10:09:11;;;;;;;3.90;3.00;;;7.10;99.90;;;-141.84;83.25;19393.16;5012699;28;20227;-65